Time,TemperatureF,DewpointF,PressureIn,WindDirection,WindDirectionDegrees,WindSpeedMPH,WindSpeedGustMPH,Humidity,HourlyPrecipIn,Conditions,Clouds,dailyrainin,SoftwareType,DateUTC
2013-06-26 00:00:00,72.9,68.1,29.63,South,182,1.0,3.0,85,0.00,,,0.01,Wunderground v.1.15,2013-06-26 05:00:00,
2013-06-26 00:10:00,72.6,67.8,29.64,South,182,1.0,3.0,85,0.00,,,0.01,Wunderground v.1.15,2013-06-26 05:10:00,
2013-06-26 00:20:00,72.2,67.4,29.64,South,182,1.0,3.0,85,0.00,,,0.01,Wunderground v.1.15,2013-06-26 05:20:00,
2013-06-26 00:30:00,72.8,68.4,29.64,West,264,4.0,5.0,86,0.00,,,0.01,Wunderground v.1.15,2013-06-26 05:30:00,
2013-06-26 00:40:00,72.8,68.0,29.64,WSW,255,5.0,5.0,85,0.00,,,0.01,Wunderground v.1.15,2013-06-26 05:40:00,
2013-06-26 00:45:00,72.9,68.1,29.64,West,262,4.0,5.0,85,0.00,,,0.01,Wunderground v.1.15,2013-06-26 05:45:00,
2013-06-26 00:50:00,72.8,68.0,29.64,West,260,4.0,4.0,85,0.00,,,0.01,Wunderground v.1.15,2013-06-26 05:50:00,
2013-06-26 01:00:00,72.3,67.5,29.64,WSW,248,3.0,3.0,85,0.00,,,0.01,Wunderground v.1.15,2013-06-26 06:00:00,
2013-06-26 01:10:00,71.7,66.9,29.64,WSW,248,3.0,3.0,85,0.00,,,0.00,Wunderground v.1.15,2013-06-26 06:10:00,
2013-06-26 01:15:00,71.5,66.8,29.64,WSW,249,3.0,3.0,85,0.00,,,0.00,Wunderground v.1.15,2013-06-26 06:15:00,
2013-06-26 01:20:00,71.3,66.6,29.65,WSW,249,3.0,3.0,85,0.00,,,0.00,Wunderground v.1.15,2013-06-26 06:20:00,
2013-06-26 01:30:00,71.0,66.6,29.65,WSW,248,2.0,3.0,86,0.00,,,0.00,Wunderground v.1.15,2013-06-26 06:30:00,
2013-06-26 01:40:00,70.6,66.2,29.65,WNW,283,2.0,4.0,86,0.00,,,0.00,Wunderground v.1.15,2013-06-26 06:40:00,
2013-06-26 01:50:00,71.3,66.2,29.65,NW,304,4.0,4.0,84,0.00,,,0.00,Wunderground v.1.15,2013-06-26 06:50:00,
2013-06-26 02:00:00,71.6,65.5,29.65,WNW,286,5.0,7.0,81,0.00,,,0.00,Wunderground v.1.15,2013-06-26 07:00:00,
2013-06-26 02:05:00,71.6,64.7,29.66,NW,309,6.0,7.0,79,0.00,,,0.00,Wunderground v.1.15,2013-06-26 07:05:00,
2013-06-26 02:15:00,71.6,64.0,29.66,NW,309,5.0,5.0,77,0.00,,,0.00,Wunderground v.1.15,2013-06-26 07:15:00,
2013-06-26 02:25:00,71.4,63.4,29.66,NW,309,5.0,5.0,76,0.00,,,0.00,Wunderground v.1.15,2013-06-26 07:25:00,
2013-06-26 02:30:00,71.2,63.2,29.67,WNW,300,4.0,6.0,76,0.00,,,0.00,Wunderground v.1.15,2013-06-26 07:30:00,
2013-06-26 02:40:00,70.6,63.0,29.67,WNW,298,4.0,4.0,77,0.00,,,0.00,Wunderground v.1.15,2013-06-26 07:40:00,
2013-06-26 02:50:00,69.8,62.6,29.67,WNW,299,3.0,3.0,78,0.00,,,0.00,Wunderground v.1.15,2013-06-26 07:50:00,
2013-06-26 03:00:00,69.3,62.5,29.68,WNW,294,4.0,4.0,79,0.00,,,0.00,Wunderground v.1.15,2013-06-26 08:00:00,
2013-06-26 03:10:00,68.5,62.1,29.68,WNW,294,3.0,3.0,80,0.00,,,0.00,Wunderground v.1.15,2013-06-26 08:10:00,
2013-06-26 03:15:00,68.0,61.9,29.68,WNW,292,3.0,3.0,81,0.00,,,0.00,Wunderground v.1.15,2013-06-26 08:15:00,
2013-06-26 03:25:00,67.5,61.8,29.68,WNW,284,3.0,3.0,82,0.00,,,0.00,Wunderground v.1.15,2013-06-26 08:25:00,
2013-06-26 03:30:00,67.5,62.2,29.68,West,278,3.0,4.0,83,0.00,,,0.00,Wunderground v.1.15,2013-06-26 08:30:00,
2013-06-26 03:40:00,67.4,62.1,29.69,West,277,4.0,4.0,83,0.00,,,0.00,Wunderground v.1.15,2013-06-26 08:40:00,
2013-06-26 03:50:00,67.6,62.6,29.69,WNW,296,4.0,5.0,84,0.00,,,0.00,Wunderground v.1.15,2013-06-26 08:50:00,
2013-06-26 04:00:00,67.8,62.4,29.70,WNW,294,5.0,5.0,83,0.00,,,0.00,Wunderground v.1.15,2013-06-26 09:00:00,
2013-06-26 04:10:00,67.8,62.4,29.70,WNW,290,3.0,3.0,83,0.00,,,0.00,Wunderground v.1.15,2013-06-26 09:10:00,
2013-06-26 04:15:00,67.8,62.8,29.71,NW,311,3.0,3.0,84,0.00,,,0.00,Wunderground v.1.15,2013-06-26 09:15:00,
2013-06-26 04:25:00,67.7,62.7,29.71,WNW,303,4.0,4.0,84,0.00,,,0.00,Wunderground v.1.15,2013-06-26 09:25:00,
2013-06-26 04:30:00,67.7,62.7,29.71,NW,315,3.0,3.0,84,0.00,,,0.00,Wunderground v.1.15,2013-06-26 09:30:00,
2013-06-26 04:40:00,67.6,62.6,29.71,NW,305,3.0,4.0,84,0.00,,,0.00,Wunderground v.1.15,2013-06-26 09:40:00,
2013-06-26 04:50:00,67.6,62.6,29.72,NW,307,4.0,8.0,84,0.00,,,0.00,Wunderground v.1.15,2013-06-26 09:50:00,
2013-06-26 05:00:00,67.7,62.7,29.72,NW,316,4.0,6.0,84,0.00,,,0.00,Wunderground v.1.15,2013-06-26 10:00:00,
2013-06-26 05:05:00,67.7,62.7,29.72,WNW,300,5.0,6.0,84,0.00,,,0.00,Wunderground v.1.15,2013-06-26 10:05:00,
2013-06-26 05:15:00,67.8,62.8,29.73,WNW,298,5.0,5.0,84,0.00,,,0.00,Wunderground v.1.15,2013-06-26 10:15:00,
2013-06-26 05:20:00,67.8,62.8,29.73,WNW,300,5.0,5.0,84,0.00,,,0.00,Wunderground v.1.15,2013-06-26 10:20:00,
2013-06-26 05:30:00,67.7,62.7,29.73,NW,324,5.0,5.0,84,0.00,,,0.00,Wunderground v.1.15,2013-06-26 10:30:00,
2013-06-26 05:40:00,67.6,62.6,29.74,NNW,344,4.0,4.0,84,0.00,,,0.00,Wunderground v.1.15,2013-06-26 10:40:00,
2013-06-26 05:50:00,67.6,62.6,29.74,WNW,299,3.0,3.0,84,0.00,,,0.00,Wunderground v.1.15,2013-06-26 10:50:00,
2013-06-26 06:00:00,67.4,62.4,29.74,NW,313,4.0,4.0,84,0.00,,,0.00,Wunderground v.1.15,2013-06-26 11:00:00,
2013-06-26 06:10:00,67.2,62.2,29.74,West,278,5.0,5.0,84,0.00,,,0.00,Wunderground v.1.15,2013-06-26 11:10:00,
2013-06-26 06:20:00,67.4,62.4,29.74,North,360,4.0,4.0,84,0.00,,,0.00,Wunderground v.1.15,2013-06-26 11:20:00,
2013-06-26 06:30:00,67.8,62.4,29.74,NNW,333,3.0,11.0,83,0.00,,,0.00,Wunderground v.1.15,2013-06-26 11:30:00,
2013-06-26 06:40:00,68.1,62.7,29.75,North,360,4.0,11.0,83,0.00,,,0.00,Wunderground v.1.15,2013-06-26 11:40:00,
2013-06-26 06:50:00,68.6,62.9,29.75,NNW,344,4.0,11.0,82,0.00,,,0.00,Wunderground v.1.15,2013-06-26 11:50:00,
2013-06-26 06:55:00,68.8,62.7,29.75,NNW,334,4.0,11.0,81,0.00,,,0.00,Wunderground v.1.15,2013-06-26 11:55:00,
2013-06-26 07:05:00,69.2,63.1,29.76,NNW,347,3.0,11.0,81,0.00,,,0.00,Wunderground v.1.15,2013-06-26 12:05:00,
2013-06-26 07:10:00,69.4,63.3,29.76,NNW,331,3.0,3.0,81,0.00,,,0.00,Wunderground v.1.15,2013-06-26 12:10:00,
2013-06-26 07:20:00,69.8,63.3,29.76,WNW,303,3.0,11.0,80,0.00,,,0.00,Wunderground v.1.15,2013-06-26 12:20:00,
2013-06-26 07:30:00,70.3,63.5,29.76,NNW,334,3.0,11.0,79,0.00,,,0.00,Wunderground v.1.15,2013-06-26 12:30:00,
2013-06-26 07:40:00,70.9,64.1,29.77,NNW,346,3.0,11.0,79,0.00,,,0.00,Wunderground v.1.15,2013-06-26 12:40:00,
2013-06-26 07:50:00,71.7,64.1,29.76,NW,320,3.0,11.0,77,0.00,,,0.00,Wunderground v.1.15,2013-06-26 12:50:00,
2013-06-26 07:55:00,72.1,64.1,29.77,NNW,338,4.0,11.0,76,0.00,,,0.00,Wunderground v.1.15,2013-06-26 12:55:00,
2013-06-26 08:05:00,72.8,64.4,29.76,NNW,332,5.0,11.0,75,0.00,,,0.00,Wunderground v.1.15,2013-06-26 13:05:00,
2013-06-26 08:10:00,73.1,64.7,29.76,North,350,4.0,11.0,75,0.00,,,0.00,Wunderground v.1.15,2013-06-26 13:10:00,
2013-06-26 08:20:00,73.4,64.2,29.77,NNW,340,5.0,5.0,73,0.00,,,0.00,Wunderground v.1.15,2013-06-26 13:20:00,
2013-06-26 08:30:00,73.9,64.7,29.78,WNW,288,3.0,11.0,73,0.00,,,0.00,Wunderground v.1.15,2013-06-26 13:30:00,
2013-06-26 08:40:00,74.4,64.4,29.78,NW,304,3.0,3.0,71,0.00,,,0.00,Wunderground v.1.15,2013-06-26 13:40:00,
2013-06-26 08:50:00,75.3,65.6,29.78,NW,310,2.0,11.0,72,0.00,,,0.00,Wunderground v.1.15,2013-06-26 13:50:00,
2013-06-26 08:55:00,75.8,64.9,29.78,WNW,297,2.0,11.0,69,0.00,,,0.00,Wunderground v.1.15,2013-06-26 13:55:00,
2013-06-26 09:05:00,76.6,64.4,29.78,NNW,336,2.0,11.0,66,0.00,,,0.00,Wunderground v.1.15,2013-06-26 14:05:00,
2013-06-26 09:15:00,77.2,63.2,29.79,NW,318,3.0,11.0,62,0.00,,,0.00,Wunderground v.1.15,2013-06-26 14:15:00,
2013-06-26 09:20:00,77.4,62.4,29.79,NW,324,3.0,3.0,60,0.00,,,0.00,Wunderground v.1.15,2013-06-26 14:20:00,
2013-06-26 09:30:00,78.1,62.6,29.80,WNW,296,2.0,11.0,59,0.00,,,0.00,Wunderground v.1.15,2013-06-26 14:30:00,
2013-06-26 09:40:00,78.8,61.3,29.80,North,355,3.0,11.0,55,0.00,,,0.00,Wunderground v.1.15,2013-06-26 14:40:00,
2013-06-26 09:50:00,79.4,62.8,29.80,NW,304,3.0,11.0,57,0.00,,,0.00,Wunderground v.1.15,2013-06-26 14:50:00,
2013-06-26 10:00:00,79.8,60.6,29.80,NNW,341,4.0,4.0,52,0.00,,,0.00,Wunderground v.1.15,2013-06-26 15:00:00,
2013-06-26 10:05:00,79.9,60.2,29.80,WNW,296,3.0,11.0,51,0.00,,,0.00,Wunderground v.1.15,2013-06-26 15:05:00,
2013-06-26 10:10:00,80.2,61.5,29.80,North,355,4.0,11.0,53,0.00,,,0.00,Wunderground v.1.15,2013-06-26 15:10:00,
2013-06-26 10:20:00,80.6,58.5,29.80,NW,308,3.0,3.0,47,0.00,,,0.00,Wunderground v.1.15,2013-06-26 15:20:00,
2013-06-26 10:30:00,81.3,60.3,29.81,NW,320,3.0,11.0,49,0.00,,,0.00,Wunderground v.1.15,2013-06-26 15:30:00,
2013-06-26 10:40:00,81.6,59.4,29.81,North,355,3.0,11.0,47,0.00,,,0.00,Wunderground v.1.15,2013-06-26 15:40:00,
2013-06-26 10:45:00,81.5,59.9,29.81,NW,307,3.0,11.0,48,0.00,,,0.00,Wunderground v.1.15,2013-06-26 15:45:00,
2013-06-26 10:50:00,81.8,60.2,29.81,WNW,285,3.0,11.0,48,0.00,,,0.00,Wunderground v.1.15,2013-06-26 15:50:00,
2013-06-26 11:00:00,82.3,59.4,29.81,WNW,294,4.0,11.0,46,0.00,,,0.00,Wunderground v.1.15,2013-06-26 16:00:00,
2013-06-26 11:10:00,82.5,59.6,29.82,NW,309,3.0,11.0,46,0.00,,,0.00,Wunderground v.1.15,2013-06-26 16:10:00,
2013-06-26 11:20:00,82.9,58.1,29.82,WNW,299,3.0,3.0,43,0.00,,,0.00,Wunderground v.1.15,2013-06-26 16:20:00,
2013-06-26 11:30:00,83.5,57.3,29.83,NW,304,1.0,11.0,41,0.00,,,0.00,Wunderground v.1.15,2013-06-26 16:30:00,
2013-06-26 11:35:00,83.8,58.3,29.82,NNW,348,1.0,11.0,42,0.00,,,0.00,Wunderground v.1.15,2013-06-26 16:35:00,
2013-06-26 11:45:00,84.4,55.3,29.83,NNW,339,5.0,11.0,37,0.00,,,0.00,Wunderground v.1.15,2013-06-26 16:45:00,
2013-06-26 11:50:00,84.3,56.6,29.82,North,349,3.0,3.0,39,0.00,,,0.00,Wunderground v.1.15,2013-06-26 16:50:00,
2013-06-26 12:00:00,84.6,57.6,29.83,North,355,1.0,8.0,40,0.00,,,0.00,Wunderground v.1.15,2013-06-26 17:00:00,
2013-06-26 12:10:00,85.2,59.5,29.82,West,269,1.0,1.0,42,0.00,,,0.00,Wunderground v.1.15,2013-06-26 17:10:00,
2013-06-26 12:20:00,85.7,60.6,29.83,WNW,302,2.0,8.0,43,0.00,,,0.00,Wunderground v.1.15,2013-06-26 17:20:00,
2013-06-26 12:30:00,85.6,59.9,29.83,NW,309,3.0,8.0,42,0.00,,,0.00,Wunderground v.1.15,2013-06-26 17:30:00,
2013-06-26 12:40:00,85.8,62.0,29.82,SSW,205,2.0,2.0,45,0.00,,,0.00,Wunderground v.1.15,2013-06-26 17:40:00,
2013-06-26 12:45:00,85.8,60.1,29.82,NNW,329,3.0,3.0,42,0.00,,,0.00,Wunderground v.1.15,2013-06-26 17:45:00,
2013-06-26 12:55:00,85.4,59.7,29.82,WNW,284,3.0,4.0,42,0.00,,,0.00,Wunderground v.1.15,2013-06-26 17:55:00,
2013-06-26 13:00:00,85.7,60.6,29.82,West,259,3.0,8.0,43,0.00,,,0.00,Wunderground v.1.15,2013-06-26 18:00:00,
2013-06-26 13:10:00,86.1,59.6,29.82,NNW,334,2.0,2.0,41,0.00,,,0.00,Wunderground v.1.15,2013-06-26 18:10:00,
2013-06-26 13:20:00,86.9,62.4,29.82,NE,49,1.0,8.0,44,0.00,,,0.00,Wunderground v.1.15,2013-06-26 18:20:00,
2013-06-26 13:30:00,87.2,60.6,29.82,NE,55,2.0,2.0,41,0.00,,,0.00,Wunderground v.1.15,2013-06-26 18:30:00,
2013-06-26 13:35:00,87.5,57.3,29.82,North,355,1.0,4.0,36,0.00,,,0.00,Wunderground v.1.15,2013-06-26 18:35:00,
2013-06-26 13:45:00,87.7,58.2,29.82,NNE,20,3.0,8.0,37,0.00,,,0.00,Wunderground v.1.15,2013-06-26 18:45:00,
2013-06-26 13:55:00,87.6,50.5,29.82,NE,44,2.0,8.0,28,0.00,,,0.00,Wunderground v.1.15,2013-06-26 18:55:00,
2013-06-26 14:00:00,87.9,50.7,29.82,SE,133,2.0,8.0,28,0.00,,,0.00,Wunderground v.1.15,2013-06-26 19:00:00,
2013-06-26 14:10:00,88.4,55.6,29.82,North,5,2.0,8.0,33,0.00,,,0.00,Wunderground v.1.15,2013-06-26 19:10:00,
2013-06-26 14:20:00,89.0,54.4,29.82,NNW,348,2.0,8.0,31,0.00,,,0.00,Wunderground v.1.15,2013-06-26 19:20:00,
2013-06-26 14:30:00,89.3,51.9,29.81,NW,306,2.0,8.0,28,0.00,,,0.00,Wunderground v.1.15,2013-06-26 19:30:00,
2013-06-26 14:40:00,89.2,58.0,29.81,NNW,344,2.0,2.0,35,0.00,,,0.00,Wunderground v.1.15,2013-06-26 19:40:00,
2013-06-26 14:45:00,89.5,53.0,29.81,NNW,342,1.0,3.0,29,0.00,,,0.00,Wunderground v.1.15,2013-06-26 19:45:00,
2013-06-26 14:55:00,89.9,54.3,29.81,West,263,2.0,3.0,30,0.00,,,0.00,Wunderground v.1.15,2013-06-26 19:55:00,
2013-06-26 15:00:00,90.2,54.6,29.81,WSW,242,2.0,2.0,30,0.00,,,0.00,Wunderground v.1.15,2013-06-26 20:00:00,
2013-06-26 15:10:00,91.0,55.3,29.81,South,190,1.0,8.0,30,0.00,,,0.00,Wunderground v.1.15,2013-06-26 20:10:00,
2013-06-26 15:20:00,91.4,57.4,29.81,NW,313,2.0,2.0,32,0.00,,,0.00,Wunderground v.1.15,2013-06-26 20:20:00,
2013-06-26 15:30:00,91.9,56.0,29.81,West,259,1.0,8.0,30,0.00,,,0.00,Wunderground v.1.15,2013-06-26 20:30:00,
2013-06-26 15:40:00,91.9,57.8,29.81,South,184,3.0,8.0,32,0.00,,,0.00,Wunderground v.1.15,2013-06-26 20:40:00,
2013-06-26 15:45:00,91.9,54.1,29.81,SW,230,4.0,8.0,28,0.00,,,0.00,Wunderground v.1.15,2013-06-26 20:45:00,
2013-06-26 15:50:00,91.9,56.0,29.81,SW,222,4.0,8.0,30,0.00,,,0.00,Wunderground v.1.15,2013-06-26 20:50:00,
2013-06-26 16:00:00,91.8,54.1,29.81,SW,235,4.0,4.0,28,0.00,,,0.00,Wunderground v.1.15,2013-06-26 21:00:00,
2013-06-26 16:10:00,91.9,56.0,29.81,West,276,3.0,8.0,30,0.00,,,0.00,Wunderground v.1.15,2013-06-26 21:10:00,
2013-06-26 16:20:00,92.1,59.7,29.81,SW,236,4.0,8.0,34,0.00,,,0.00,Wunderground v.1.15,2013-06-26 21:20:00,
2013-06-26 16:30:00,92.0,54.2,29.80,SW,236,5.0,5.0,28,0.00,,,0.00,Wunderground v.1.15,2013-06-26 21:30:00,
2013-06-26 16:35:00,92.0,57.0,29.80,SW,216,4.0,8.0,31,0.00,,,0.00,Wunderground v.1.15,2013-06-26 21:35:00,
2013-06-26 16:45:00,91.9,56.9,29.80,NW,304,4.0,8.0,31,0.00,,,0.00,Wunderground v.1.15,2013-06-26 21:45:00,
2013-06-26 16:55:00,92.2,53.4,29.80,SW,223,4.0,4.0,27,0.00,,,0.00,Wunderground v.1.15,2013-06-26 21:55:00,
2013-06-26 17:00:00,92.3,54.5,29.80,SW,233,3.0,8.0,28,0.00,,,0.00,Wunderground v.1.15,2013-06-26 22:00:00,
2013-06-26 17:10:00,92.2,58.1,29.79,SW,219,4.0,8.0,32,0.00,,,0.00,Wunderground v.1.15,2013-06-26 22:10:00,
2013-06-26 17:20:00,92.1,56.2,29.79,West,268,4.0,8.0,30,0.00,,,0.00,Wunderground v.1.15,2013-06-26 22:20:00,
2013-06-26 17:30:00,92.8,61.1,29.79,SSW,202,5.0,8.0,35,0.00,,,0.00,Wunderground v.1.15,2013-06-26 22:30:00,
2013-06-26 17:40:00,92.3,60.7,29.78,SW,215,5.0,8.0,35,0.00,,,0.00,Wunderground v.1.15,2013-06-26 22:40:00,
2013-06-26 17:45:00,92.0,57.0,29.78,SW,222,5.0,8.0,31,0.00,,,0.00,Wunderground v.1.15,2013-06-26 22:45:00,
2013-06-26 17:50:00,92.2,58.9,29.78,SW,236,6.0,6.0,33,0.00,,,0.00,Wunderground v.1.15,2013-06-26 22:50:00,
2013-06-26 18:00:00,92.1,58.0,29.78,SW,214,7.0,7.0,32,0.00,,,0.00,Wunderground v.1.15,2013-06-26 23:00:00,
2013-06-26 18:10:00,92.0,57.9,29.78,SW,230,7.0,9.0,32,0.00,,,0.00,Wunderground v.1.15,2013-06-26 23:10:00,
2013-06-26 18:20:00,91.5,59.2,29.78,SW,232,6.0,9.0,34,0.00,,,0.00,Wunderground v.1.15,2013-06-26 23:20:00,
2013-06-26 18:30:00,90.8,57.7,29.78,West,264,5.0,9.0,33,0.00,,,0.00,Wunderground v.1.15,2013-06-26 23:30:00,
2013-06-26 18:35:00,90.7,59.3,29.77,WSW,250,5.0,9.0,35,0.00,,,0.00,Wunderground v.1.15,2013-06-26 23:35:00,
2013-06-26 18:45:00,90.2,64.0,29.77,SW,225,3.0,9.0,42,0.00,,,0.00,Wunderground v.1.15,2013-06-26 23:45:00,
2013-06-26 18:50:00,90.2,64.7,29.77,SW,227,3.0,9.0,43,0.00,,,0.00,Wunderground v.1.15,2013-06-26 23:50:00,
2013-06-26 19:00:00,90.7,60.1,29.77,SW,234,5.0,5.0,36,0.00,,,0.00,Wunderground v.1.15,2013-06-27 00:00:00,
2013-06-26 19:10:00,90.5,59.1,29.77,WSW,242,4.0,9.0,35,0.00,,,0.00,Wunderground v.1.15,2013-06-27 00:10:00,
2013-06-26 19:20:00,90.2,61.2,29.77,SW,232,4.0,4.0,38,0.00,,,0.00,Wunderground v.1.15,2013-06-27 00:20:00,
2013-06-26 19:30:00,88.9,64.8,29.77,SW,234,3.0,3.0,45,0.00,,,0.00,Wunderground v.1.15,2013-06-27 00:30:00,
2013-06-26 19:40:00,86.9,63.0,29.77,SW,234,0.0,9.0,45,0.00,,,0.00,Wunderground v.1.15,2013-06-27 00:40:00,
2013-06-26 19:45:00,86.5,63.9,29.77,SW,234,0.0,9.0,47,0.00,,,0.00,Wunderground v.1.15,2013-06-27 00:45:00,
2013-06-26 19:50:00,86.7,67.5,29.77,SW,234,0.0,9.0,53,0.00,,,0.00,Wunderground v.1.15,2013-06-27 00:50:00,
2013-06-26 20:00:00,86.3,66.0,29.77,SW,234,0.0,9.0,51,0.00,,,0.00,Wunderground v.1.15,2013-06-27 01:00:00,
2013-06-26 20:10:00,84.8,64.7,29.77,SW,234,0.0,9.0,51,0.00,,,0.00,Wunderground v.1.15,2013-06-27 01:10:00,
2013-06-26 20:20:00,84.0,66.6,29.77,SW,234,0.0,9.0,56,0.00,,,0.00,Wunderground v.1.15,2013-06-27 01:20:00,
2013-06-26 20:25:00,83.6,68.2,29.77,SW,234,0.0,9.0,60,0.00,,,0.00,Wunderground v.1.15,2013-06-27 01:25:00,
2013-06-26 20:35:00,83.0,66.2,29.77,SW,234,0.0,9.0,57,0.00,,,0.00,Wunderground v.1.15,2013-06-27 01:35:00,
2013-06-26 20:45:00,82.5,66.2,29.77,SW,234,1.0,9.0,58,0.00,,,0.00,Wunderground v.1.15,2013-06-27 01:45:00,
2013-06-26 20:55:00,81.6,65.4,29.77,East,92,2.0,9.0,58,0.00,,,0.00,Wunderground v.1.15,2013-06-27 01:55:00,
2013-06-26 21:05:00,80.8,65.1,29.77,East,92,1.0,9.0,59,0.00,,,0.00,Wunderground v.1.15,2013-06-27 02:05:00,
2013-06-26 21:10:00,80.4,64.8,29.77,East,92,0.0,9.0,59,0.00,,,0.00,Wunderground v.1.15,2013-06-27 02:10:00,
2013-06-26 21:20:00,79.7,65.1,29.77,East,92,0.0,9.0,61,0.00,,,0.00,Wunderground v.1.15,2013-06-27 02:20:00,
2013-06-26 21:30:00,78.8,65.1,29.77,East,92,0.0,9.0,63,0.00,,,0.00,Wunderground v.1.15,2013-06-27 02:30:00,
2013-06-26 21:40:00,77.7,64.5,29.78,East,92,0.0,9.0,64,0.00,,,0.00,Wunderground v.1.15,2013-06-27 02:40:00,
2013-06-26 21:50:00,77.1,64.4,29.78,East,92,0.0,9.0,65,0.00,,,0.00,Wunderground v.1.15,2013-06-27 02:50:00,
2013-06-26 21:55:00,76.6,64.4,29.78,East,92,0.0,9.0,66,0.00,,,0.00,Wunderground v.1.15,2013-06-27 02:55:00,
2013-06-26 22:05:00,76.0,64.7,29.78,East,92,0.0,9.0,68,0.00,,,0.00,Wunderground v.1.15,2013-06-27 03:05:00,
2013-06-26 22:10:00,75.8,64.9,29.79,East,92,0.0,9.0,69,0.00,,,0.00,Wunderground v.1.15,2013-06-27 03:10:00,
2013-06-26 22:20:00,75.1,64.2,29.79,East,92,0.0,9.0,69,0.00,,,0.00,Wunderground v.1.15,2013-06-27 03:20:00,
2013-06-26 22:30:00,75.3,65.6,29.80,East,92,0.0,9.0,72,0.00,,,0.00,Wunderground v.1.15,2013-06-27 03:30:00,
2013-06-26 22:40:00,75.0,65.8,29.80,East,92,0.0,9.0,73,0.00,,,0.00,Wunderground v.1.15,2013-06-27 03:40:00,
2013-06-26 22:50:00,74.8,66.0,29.80,East,92,0.0,9.0,74,0.00,,,0.00,Wunderground v.1.15,2013-06-27 03:50:00,
2013-06-26 22:55:00,74.5,65.7,29.80,East,92,0.0,9.0,74,0.00,,,0.00,Wunderground v.1.15,2013-06-27 03:55:00,
2013-06-26 23:05:00,74.3,65.9,29.80,East,92,0.0,9.0,75,0.00,,,0.00,Wunderground v.1.15,2013-06-27 04:05:00,
2013-06-26 23:10:00,74.2,65.8,29.80,East,92,0.0,9.0,75,0.00,,,0.00,Wunderground v.1.15,2013-06-27 04:10:00,
2013-06-26 23:15:00,74.2,65.8,29.80,East,92,0.0,9.0,75,0.00,,,0.00,Wunderground v.1.15,2013-06-27 04:15:00,
2013-06-26 23:20:00,74.0,66.0,29.81,East,92,0.0,9.0,76,0.00,,,0.00,Wunderground v.1.15,2013-06-27 04:20:00,
2013-06-26 23:25:00,73.8,65.8,29.81,East,92,0.0,9.0,76,0.00,,,0.00,Wunderground v.1.15,2013-06-27 04:25:00,
2013-06-26 23:30:00,73.5,65.5,29.81,East,92,0.0,9.0,76,0.00,,,0.00,Wunderground v.1.15,2013-06-27 04:30:00,
2013-06-26 23:40:00,72.9,64.5,29.80,East,92,0.0,9.0,75,0.00,,,0.00,Wunderground v.1.15,2013-06-27 04:40:00,
2013-06-26 23:50:00,72.7,65.1,29.80,East,92,1.0,9.0,77,0.00,,,0.00,Wunderground v.1.15,2013-06-27 04:50:00,